Winston, MT (59647)

12:36 AM MDT on July 27, 2016 (GMT -0600)
RAWS | | Change Station

Elev 4370 ft 46.33 °N, 111.59 °W | Updated 33 minutes ago

Clear
Clear
63.0 °F
Feels Like 63.0 °F
N
4.0
Wind Variable Wind from WSW
Gusts 10.0 mph

Today
High -- | Low -- °F
--% Chance of Precip.
Yesterday
High -- | Low -- °F
Precip. -- in
Pressure 30.06 in
Visibility 10.0 miles
Clouds Clear
Dew Point 47.0 °F
Humidity 55%
Rainfall in
Snow Depth Not available.
6:02 AM 9:02 PM
Waning Gibbous, 46% visible
METAR KHLN 270553Z AUTO 25006KT 10SM CLR 18/12 A3011 RMK AO2 SLP179 60005 T01780122 10322 20178 53007
Pressure 30.06 in
Visibility 10.0 miles
Clouds Clear
Dew Point 47.0 °F
Humidity 55%
Rainfall in
Snow Depth Not available.
6:02 AM 9:02 PM
Waning Gibbous, 46% visible
METAR KHLN 270553Z AUTO 25006KT 10SM CLR 18/12 A3011 RMK AO2 SLP179 60005 T01780122 10322 20178 53007

10-Day Weather Forecast

Almanac

Astronomy

Jul. 27, 2016 Rise Set
Actual Time
Civil Twilight
Nautical Twilight
Astronomical Twilight
Moon
Length of Visible Light
Length of Day
Tomorrow will be .
, % of the Moon is Illuminated

Today's Extremes

State Highs State Lows

Community

WunderPhotos

Upload Photos

1,927,818 photos uploaded!

WunderBlog® & News

Nearby

Air Quality

  Air Quality AQ Index Pollutant
Not available.

Snow Depth

Station Depth Elevation

Earthquake Activity

City Distance Mag. Time & Date
Minimum magnitude displayed is 2.5.

Coastal Water Temperatures

Place Temperature

Stations

Nearby Weather Stations

Station Location Temp. Windchill Dew Point Humidity Wind Precip. Elev Updated Type
                   

Watches & Warnings

There are currently no watches in effect.